createdAt,value
2022-10-19T00:01:16.860Z,0.52
2022-10-19T00:03:45.637Z,0.30
2022-10-19T00:06:27.013Z,0.20
2022-10-19T00:09:15.144Z,0.50
2022-10-19T00:11:45.635Z,0.30
2022-10-19T00:14:15.159Z,0.30
2022-10-19T00:16:43.835Z,0.30
2022-10-19T00:19:14.340Z,0.40
2022-10-19T00:21:43.554Z,0.50
2022-10-19T00:24:10.862Z,0.20
2022-10-19T00:26:37.845Z,0.30
2022-10-19T00:29:05.683Z,0.22
2022-10-19T00:31:32.563Z,0.30
2022-10-19T00:33:59.939Z,0.30
2022-10-19T00:36:34.880Z,0.20
2022-10-19T00:39:01.775Z,0.40
2022-10-19T00:41:31.081Z,0.30
2022-10-19T00:44:06.318Z,0.28
2022-10-19T00:46:35.766Z,0.47
2022-10-19T00:49:10.873Z,0.30
2022-10-19T00:51:41.060Z,0.30
2022-10-19T00:54:10.768Z,0.32
2022-10-19T00:56:41.155Z,0.30
2022-10-19T00:59:08.795Z,0.50
2022-10-19T01:01:35.957Z,0.40
2022-10-19T01:04:03.976Z,0.30
2022-10-19T01:06:32.038Z,0.30
2022-10-19T01:08:58.694Z,0.30
2022-10-19T01:12:03.814Z,0.40
2022-10-19T01:14:51.675Z,0.20
2022-10-19T01:17:48.723Z,0.85
2022-10-19T01:20:42.102Z,0.30
2022-10-19T01:23:46.321Z,0.22
2022-10-19T01:26:34.529Z,0.40
2022-10-19T01:29:36.449Z,0.40
2022-10-19T01:32:11.520Z,0.30
2022-10-19T01:35:10.184Z,0.40
2022-10-19T01:37:37.475Z,0.30
2022-10-19T01:40:18.994Z,0.30
2022-10-19T01:45:32.188Z,0.40
2022-10-19T01:48:14.220Z,0.30
2022-10-19T01:50:50.563Z,0.20
2022-10-19T01:53:21.322Z,0.40
2022-10-19T01:55:51.433Z,0.30
2022-10-19T01:58:25.180Z,0.35
2022-10-19T02:00:54.230Z,0.20
2022-10-19T02:03:22.115Z,0.40
2022-10-19T02:05:51.871Z,0.40
2022-10-19T02:08:31.064Z,0.20
2022-10-19T02:10:59.100Z,0.30
2022-10-19T02:13:30.388Z,0.30
2022-10-19T02:16:02.161Z,0.40
2022-10-19T02:18:35.773Z,0.20
2022-10-19T02:21:06.655Z,0.53
2022-10-19T02:23:35.961Z,0.40
2022-10-19T02:26:02.984Z,0.20
2022-10-19T02:28:30.555Z,0.20
2022-10-19T02:30:58.740Z,0.43
2022-10-19T02:33:26.044Z,0.40
2022-10-19T02:35:52.786Z,0.20
2022-10-19T02:38:22.640Z,0.20
2022-10-19T02:41:14.680Z,0.40
2022-10-19T02:43:44.910Z,0.20
2022-10-19T02:46:23.651Z,0.35
2022-10-19T02:48:51.622Z,0.28
2022-10-19T02:51:35.971Z,0.30
2022-10-19T02:54:05.596Z,0.30
2022-10-19T02:56:33.382Z,0.20
2022-10-19T02:59:00.062Z,0.32
2022-10-19T03:01:26.734Z,0.30
2022-10-19T03:03:53.344Z,0.30
2022-10-19T03:06:19.937Z,0.40
2022-10-19T03:08:49.047Z,0.40
2022-10-19T03:11:15.587Z,0.40
2022-10-19T03:13:42.957Z,0.22
2022-10-19T03:16:13.720Z,0.30
2022-10-19T03:18:40.436Z,0.40
2022-10-19T03:21:12.388Z,0.17
2022-10-19T03:23:41.494Z,0.43
2022-10-19T03:26:12.434Z,0.20
2022-10-19T03:28:39.406Z,0.60
2022-10-19T03:31:06.141Z,0.20
2022-10-19T03:33:32.894Z,0.30
2022-10-19T03:36:16.849Z,0.35
2022-10-19T03:38:43.933Z,0.30
2022-10-19T03:41:10.679Z,0.20
2022-10-19T03:43:37.451Z,0.50
2022-10-19T03:46:04.052Z,0.30
2022-10-19T03:48:30.709Z,0.22
2022-10-19T03:51:01.897Z,0.30
2022-10-19T03:53:33.367Z,0.32
2022-10-19T03:56:08.664Z,0.45
2022-10-19T03:58:37.305Z,0.38
2022-10-19T04:01:09.217Z,0.20
2022-10-19T04:06:05.485Z,0.40
2022-10-19T04:08:32.296Z,0.28
2022-10-19T04:11:07.001Z,0.30
2022-10-19T04:13:34.449Z,0.25
2022-10-19T04:16:01.912Z,0.20
2022-10-19T04:18:28.758Z,0.40
2022-10-19T04:21:04.871Z,0.60
2022-10-19T04:23:35.105Z,0.30
2022-10-19T04:26:06.063Z,0.38
2022-10-19T04:28:32.995Z,0.40
2022-10-19T04:31:03.919Z,0.85
2022-10-19T04:33:30.812Z,0.32
2022-10-19T04:36:00.880Z,0.30
2022-10-19T04:38:28.481Z,0.20
2022-10-19T04:40:56.134Z,0.32
2022-10-19T04:43:22.960Z,0.30
2022-10-19T04:45:49.531Z,0.40
2022-10-19T04:48:16.139Z,0.30
2022-10-19T04:50:42.715Z,0.50
2022-10-19T04:53:09.840Z,0.30
2022-10-19T04:55:42.408Z,0.30
2022-10-19T04:58:09.282Z,0.45
2022-10-19T05:00:38.353Z,0.40
2022-10-19T05:03:05.321Z,0.30
2022-10-19T05:05:32.724Z,0.30
2022-10-19T05:07:59.267Z,0.30
2022-10-19T05:10:26.065Z,0.20
2022-10-19T05:12:52.775Z,0.30
2022-10-19T05:15:19.683Z,0.38
2022-10-19T05:17:46.383Z,0.30
2022-10-19T05:20:13.024Z,0.30
2022-10-19T05:22:41.697Z,0.47
2022-10-19T05:25:08.821Z,0.22
2022-10-19T05:27:37.313Z,0.22
2022-10-19T05:30:06.413Z,0.20
2022-10-19T05:32:32.961Z,0.20
2022-10-19T05:34:59.563Z,0.30
2022-10-19T05:37:26.356Z,0.30
2022-10-19T05:39:56.245Z,0.30
2022-10-19T05:42:22.824Z,0.28
2022-10-19T05:44:49.367Z,0.30
2022-10-19T05:47:15.992Z,0.20
2022-10-19T05:49:42.544Z,0.50
2022-10-19T05:52:09.170Z,0.20
2022-10-19T05:54:37.732Z,0.30
2022-10-19T05:57:04.367Z,0.20
2022-10-19T05:59:31.149Z,0.30
2022-10-19T06:01:57.749Z,0.50
2022-10-19T06:04:24.380Z,0.20
2022-10-19T06:06:50.968Z,0.40
2022-10-19T06:09:17.568Z,0.22
2022-10-19T06:11:45.911Z,0.30
2022-10-19T06:14:15.958Z,0.30
2022-10-19T06:16:43.196Z,0.30
2022-10-19T06:19:09.823Z,0.30
2022-10-19T06:21:36.816Z,0.30
2022-10-19T06:24:07.619Z,0.30
2022-10-19T06:26:35.817Z,0.20
2022-10-19T06:29:03.931Z,0.30
2022-10-19T06:31:32.648Z,0.20
2022-10-19T06:33:59.991Z,0.50
2022-10-19T06:36:29.661Z,0.40
2022-10-19T06:39:02.581Z,0.40
2022-10-19T06:41:31.220Z,0.38
2022-10-19T06:43:57.821Z,0.30
2022-10-19T06:46:25.988Z,0.30
2022-10-19T06:48:55.094Z,0.40
2022-10-19T06:51:22.286Z,0.30
2022-10-19T06:53:54.220Z,0.30
2022-10-19T06:56:26.790Z,0.52
2022-10-19T06:58:54.390Z,0.30
2022-10-19T07:01:21.771Z,0.30
2022-10-19T07:03:51.078Z,0.40
2022-10-19T07:06:17.908Z,0.30
2022-10-19T07:08:44.686Z,0.30
2022-10-19T07:11:15.265Z,0.43
2022-10-19T07:13:41.988Z,0.30
2022-10-19T07:16:15.898Z,0.30
2022-10-19T07:18:46.812Z,0.22
2022-10-19T07:21:15.667Z,0.30
2022-10-19T07:23:46.139Z,0.20
2022-10-19T07:26:17.193Z,0.20
2022-10-19T07:28:46.775Z,0.30
2022-10-19T07:31:17.991Z,0.30
2022-10-19T07:33:44.887Z,0.20
2022-10-19T07:36:13.385Z,0.30
2022-10-19T07:38:40.971Z,0.30
2022-10-19T07:41:10.315Z,0.20
2022-10-19T07:43:36.935Z,0.40
2022-10-19T07:46:06.843Z,0.30
2022-10-19T07:48:35.109Z,0.30
2022-10-19T07:51:03.711Z,0.20
2022-10-19T07:53:30.397Z,0.40
2022-10-19T07:56:04.831Z,0.30
2022-10-19T07:58:31.667Z,0.30
2022-10-19T08:01:05.436Z,0.40
2022-10-19T08:06:20.615Z,0.20
2022-10-19T08:08:48.848Z,0.30
2022-10-19T08:11:27.667Z,0.40
2022-10-19T08:13:54.933Z,0.22
2022-10-19T08:16:26.157Z,0.60
2022-10-19T08:18:55.796Z,0.50
2022-10-19T08:21:22.565Z,0.40
2022-10-19T08:23:49.125Z,0.25
2022-10-19T08:26:15.733Z,0.45
2022-10-19T08:28:42.281Z,0.30
2022-10-19T08:31:17.495Z,0.50
2022-10-19T08:33:44.694Z,0.20
2022-10-19T08:36:13.702Z,0.30
2022-10-19T08:38:40.484Z,0.40
2022-10-19T08:41:32.656Z,0.30
2022-10-19T08:44:30.272Z,0.40
2022-10-19T08:47:12.189Z,0.30
2022-10-19T08:49:40.161Z,0.20
2022-10-19T08:52:21.482Z,0.28
2022-10-19T08:54:57.521Z,0.52
2022-10-19T08:57:24.508Z,0.30
2022-10-19T09:00:02.076Z,0.40
2022-10-19T09:03:03.638Z,0.35
2022-10-19T09:05:43.840Z,0.40
2022-10-19T09:08:16.836Z,0.30
2022-10-19T09:10:49.171Z,0.40
2022-10-19T09:13:21.833Z,0.45
2022-10-19T09:15:50.798Z,0.40
2022-10-19T09:18:23.995Z,0.20
2022-10-19T09:20:57.881Z,0.30
2022-10-19T09:23:44.061Z,0.47
2022-10-19T09:26:16.907Z,0.30
2022-10-19T09:28:55.768Z,0.20
2022-10-19T09:31:31.847Z,0.40
2022-10-19T09:34:03.294Z,0.45
2022-10-19T09:36:50.520Z,0.35
2022-10-19T09:39:18.271Z,0.32
2022-10-19T09:41:53.912Z,0.30
2022-10-19T09:44:21.655Z,0.30
2022-10-19T09:47:24.672Z,0.30
2022-10-19T09:49:51.470Z,0.30
2022-10-19T09:52:52.400Z,0.25
2022-10-19T09:55:45.705Z,0.20
2022-10-19T09:58:15.391Z,0.20
2022-10-19T10:00:50.658Z,0.20
2022-10-19T10:03:40.555Z,0.28
2022-10-19T10:06:14.904Z,0.45
2022-10-19T10:08:58.559Z,0.22
2022-10-19T10:11:28.970Z,0.28
2022-10-19T10:13:57.748Z,0.22
2022-10-19T10:16:30.424Z,0.28
2022-10-19T10:19:10.777Z,0.20
2022-10-19T10:21:49.997Z,0.20
2022-10-19T10:24:18.490Z,0.30
2022-10-19T10:26:51.331Z,0.30
2022-10-19T10:29:23.521Z,0.32
2022-10-19T10:31:53.813Z,0.30
2022-10-19T10:35:00.015Z,0.20
2022-10-19T10:37:37.976Z,0.20
2022-10-19T10:40:06.460Z,0.30
2022-10-19T10:42:43.523Z,0.30
2022-10-19T10:45:26.116Z,0.40
2022-10-19T10:47:53.736Z,0.30
2022-10-19T10:50:33.832Z,0.63
2022-10-19T10:53:49.581Z,0.60
2022-10-19T10:56:35.252Z,0.25
2022-10-19T10:59:16.239Z,0.20
2022-10-19T11:01:58.718Z,0.30
2022-10-19T11:04:31.870Z,0.13
2022-10-19T11:07:07.279Z,0.10
2022-10-19T11:09:42.608Z,0.20
2022-10-19T11:12:19.192Z,0.20
2022-10-19T11:14:45.713Z,0.30
2022-10-19T11:17:24.990Z,0.20
2022-10-19T11:19:51.755Z,0.20
2022-10-19T11:22:43.101Z,0.28
2022-10-19T11:25:46.831Z,0.20
2022-10-19T11:28:40.562Z,0.13
2022-10-19T11:31:19.236Z,0.20
2022-10-19T11:34:00.378Z,0.10
2022-10-19T11:36:45.651Z,0.10
2022-10-19T11:39:15.113Z,0.20
2022-10-19T11:42:01.944Z,0.20
2022-10-19T11:44:51.802Z,0.93
2022-10-19T11:47:29.621Z,0.20
2022-10-19T11:53:05.130Z,0.10
2022-10-19T11:55:37.653Z,0.10
2022-10-19T11:58:14.109Z,0.28
2022-10-19T12:01:06.697Z,0.25
2022-10-19T12:03:48.363Z,0.28
2022-10-19T12:06:29.476Z,0.28
2022-10-19T12:09:14.853Z,0.30
2022-10-19T12:11:59.462Z,0.50
2022-10-19T12:14:31.978Z,0.22
2022-10-19T12:17:02.932Z,0.20
2022-10-19T12:19:36.547Z,0.20
2022-10-19T12:22:06.273Z,0.50
2022-10-19T12:24:34.181Z,0.30
2022-10-19T12:27:03.984Z,0.20
2022-10-19T12:29:39.517Z,0.30
2022-10-19T12:32:07.406Z,0.10
2022-10-19T12:35:00.473Z,0.20
2022-10-19T12:37:40.346Z,0.20
2022-10-19T12:40:25.518Z,0.32
2022-10-19T12:43:27.118Z,0.28
2022-10-19T12:46:21.203Z,0.17
2022-10-19T12:49:30.615Z,0.10
2022-10-19T12:51:59.763Z,0.20
2022-10-19T12:54:33.740Z,0.10
2022-10-19T12:57:02.807Z,0.20
2022-10-19T12:59:32.648Z,0.20
2022-10-19T13:02:01.117Z,0.10
2022-10-19T13:04:30.559Z,0.15
2022-10-19T13:06:57.103Z,0.20
2022-10-19T13:09:32.668Z,0.10
2022-10-19T13:12:25.886Z,0.10
2022-10-19T13:15:00.138Z,0.40
2022-10-19T13:17:49.119Z,0.28
2022-10-19T13:20:15.813Z,0.20
2022-10-19T13:22:45.112Z,0.40
2022-10-19T13:25:35.329Z,0.20
2022-10-19T13:28:08.445Z,0.10
2022-10-19T13:31:03.253Z,0.20
2022-10-19T13:33:32.819Z,0.20
2022-10-19T13:35:59.360Z,0.22
2022-10-19T13:38:32.804Z,0.20
2022-10-19T13:41:18.924Z,0.20
2022-10-19T13:44:06.798Z,0.20
2022-10-19T13:46:44.222Z,0.15
2022-10-19T13:49:27.859Z,0.20
2022-10-19T13:52:17.407Z,0.17
2022-10-19T13:55:12.149Z,0.20
2022-10-19T13:58:20.736Z,0.20
2022-10-19T14:01:18.402Z,0.17
2022-10-19T14:04:16.075Z,0.20
2022-10-19T14:06:48.963Z,0.20
2022-10-19T14:09:48.028Z,0.20
2022-10-19T14:12:18.476Z,0.30
2022-10-19T14:14:45.406Z,0.30
2022-10-19T14:19:53.952Z,0.30
2022-10-19T14:22:25.536Z,0.10
2022-10-19T14:24:59.540Z,0.30
2022-10-19T14:27:26.257Z,0.30
2022-10-19T14:29:54.800Z,0.30
2022-10-19T14:32:26.305Z,0.40
2022-10-19T14:34:54.753Z,0.30
2022-10-19T14:37:24.703Z,0.30
2022-10-19T14:40:08.762Z,0.20
2022-10-19T14:42:41.135Z,0.30
2022-10-19T14:45:15.054Z,0.30
2022-10-19T14:48:17.006Z,0.40
2022-10-19T14:50:51.641Z,0.30
2022-10-19T14:56:08.193Z,0.20
2022-10-19T14:59:00.704Z,0.28
2022-10-19T15:01:27.452Z,0.40
2022-10-19T15:03:56.207Z,0.15
2022-10-19T15:06:29.520Z,0.10
2022-10-19T15:09:05.305Z,0.20
2022-10-19T15:11:46.901Z,0.20
2022-10-19T15:14:19.241Z,0.10
2022-10-19T15:16:56.569Z,0.20
2022-10-19T15:19:31.833Z,0.20
2022-10-19T15:22:20.685Z,0.20
2022-10-19T15:25:05.913Z,0.20
2022-10-19T15:27:37.836Z,0.10
2022-10-19T15:30:23.385Z,0.20
2022-10-19T15:33:13.296Z,0.22
2022-10-19T15:35:44.137Z,0.20
2022-10-19T15:38:27.054Z,0.20
2022-10-19T15:40:59.256Z,0.20
2022-10-19T15:43:34.592Z,0.20
2022-10-19T15:46:22.183Z,0.20
2022-10-19T15:48:55.334Z,0.20
2022-10-19T15:51:25.080Z,0.13
2022-10-19T15:53:53.444Z,0.10
2022-10-19T15:56:26.551Z,0.10
2022-10-19T15:58:55.315Z,0.25
2022-10-19T16:01:27.790Z,0.20
2022-10-19T16:03:54.598Z,0.30
2022-10-19T16:06:23.428Z,0.30
2022-10-19T16:08:51.364Z,0.20
2022-10-19T16:11:20.095Z,0.20
2022-10-19T16:13:47.184Z,0.20
2022-10-19T16:16:26.955Z,0.20
2022-10-19T16:18:54.551Z,0.20
2022-10-19T16:21:24.475Z,0.20
2022-10-19T16:23:52.366Z,0.20
2022-10-19T16:26:19.839Z,0.10
2022-10-19T16:28:46.498Z,0.20
2022-10-19T16:31:13.175Z,0.20
2022-10-19T16:33:39.768Z,0.30
2022-10-19T16:36:07.579Z,0.20
2022-10-19T16:38:35.387Z,0.20
2022-10-19T16:41:03.649Z,0.20
2022-10-19T16:43:30.663Z,0.20
2022-10-19T16:45:57.793Z,0.20
2022-10-19T16:48:24.921Z,0.30
2022-10-19T16:51:06.676Z,0.20
2022-10-19T16:53:37.818Z,0.30
2022-10-19T16:56:09.712Z,0.25
2022-10-19T16:58:37.408Z,0.25
2022-10-19T17:01:08.823Z,0.25
2022-10-19T17:03:38.060Z,0.30
2022-10-19T17:06:06.072Z,0.22
2022-10-19T17:08:44.211Z,0.20
2022-10-19T17:11:22.389Z,0.30
2022-10-19T17:13:51.294Z,0.30
2022-10-19T17:16:20.299Z,0.30
2022-10-19T17:18:47.663Z,0.40
2022-10-19T17:21:17.512Z,0.45
2022-10-19T17:23:44.377Z,0.50
2022-10-19T17:26:11.813Z,0.60
2022-10-19T17:28:42.792Z,0.60
2022-10-19T17:31:14.128Z,0.60
2022-10-19T17:33:41.536Z,0.80
2022-10-19T17:36:09.568Z,0.40
2022-10-19T17:38:36.985Z,0.30
2022-10-19T17:41:07.046Z,0.32
2022-10-19T17:43:34.063Z,0.50
2022-10-19T17:46:05.250Z,0.47
2022-10-19T17:48:33.350Z,0.47
2022-10-19T17:51:02.859Z,0.30
2022-10-19T17:53:30.934Z,0.28
2022-10-19T17:56:03.367Z,0.40
2022-10-19T17:58:37.661Z,0.30
2022-10-19T18:01:07.168Z,0.30
2022-10-19T18:03:34.832Z,0.25
2022-10-19T18:06:06.887Z,0.38
2022-10-19T18:08:42.155Z,0.30
2022-10-19T18:11:15.268Z,0.30
2022-10-19T18:13:42.129Z,0.20
2022-10-19T18:16:18.378Z,0.25
2022-10-19T18:18:48.582Z,0.28
2022-10-19T18:21:18.037Z,0.93
2022-10-19T18:23:44.765Z,0.30
2022-10-19T18:26:14.875Z,0.30
2022-10-19T18:28:42.488Z,0.38
2022-10-19T18:31:10.355Z,0.20
2022-10-19T18:33:40.329Z,0.30
2022-10-19T18:36:08.655Z,0.30
2022-10-19T18:38:35.516Z,0.40
2022-10-19T18:43:39.669Z,0.30
2022-10-19T18:46:07.512Z,0.20
2022-10-19T18:48:37.107Z,0.30
2022-10-19T18:51:08.295Z,0.38
2022-10-19T18:53:36.652Z,0.30
2022-10-19T18:56:08.741Z,0.28
2022-10-19T18:58:36.392Z,0.40
2022-10-19T19:01:11.717Z,0.20
2022-10-19T19:03:41.167Z,0.30
2022-10-19T19:06:15.834Z,0.50
2022-10-19T19:08:45.498Z,0.40
2022-10-19T19:11:17.128Z,0.40
2022-10-19T19:13:49.227Z,0.30
2022-10-19T19:16:15.920Z,0.28
2022-10-19T19:18:42.782Z,0.47
2022-10-19T19:21:18.481Z,0.90
2022-10-19T19:23:45.524Z,1.00
2022-10-19T19:26:13.522Z,0.40
2022-10-19T19:28:42.319Z,0.45
2022-10-19T19:31:11.736Z,0.40
2022-10-19T19:33:39.133Z,0.30
2022-10-19T19:36:07.371Z,0.32
2022-10-19T19:38:34.577Z,0.40
2022-10-19T19:41:06.406Z,0.30
2022-10-19T19:43:35.199Z,0.40
2022-10-19T19:46:08.040Z,0.45
2022-10-19T19:48:37.111Z,0.40
2022-10-19T19:51:03.932Z,0.40
2022-10-19T19:53:31.729Z,0.52
2022-10-19T19:55:59.124Z,0.30
2022-10-19T19:58:26.129Z,0.30
2022-10-19T20:00:54.629Z,0.30
2022-10-19T20:03:21.193Z,0.40
2022-10-19T20:05:47.805Z,0.30
2022-10-19T20:08:14.396Z,0.50
2022-10-19T20:10:42.346Z,0.22
2022-10-19T20:13:09.477Z,0.40
2022-10-19T20:15:39.492Z,0.38
2022-10-19T20:18:06.708Z,0.60
2022-10-19T20:20:33.402Z,0.63
2022-10-19T20:23:00.102Z,0.50
2022-10-19T20:25:26.848Z,0.52
2022-10-19T20:27:53.479Z,0.50
2022-10-19T20:30:20.299Z,0.85
2022-10-19T20:32:46.856Z,0.60
2022-10-19T20:35:13.908Z,0.52
2022-10-19T20:37:40.542Z,0.40
2022-10-19T20:40:08.953Z,0.68
2022-10-19T20:42:36.366Z,0.40
2022-10-19T20:45:03.951Z,0.32
2022-10-19T20:47:30.628Z,0.30
2022-10-19T20:49:57.254Z,0.40
2022-10-19T20:52:23.860Z,0.30
2022-10-19T20:54:51.170Z,0.50
2022-10-19T20:57:17.772Z,0.40
2022-10-19T20:59:45.752Z,0.30
2022-10-19T21:02:12.372Z,0.50
2022-10-19T21:04:41.119Z,0.30
2022-10-19T21:07:07.894Z,0.40
2022-10-19T21:09:36.392Z,0.30
2022-10-19T21:12:05.096Z,0.45
2022-10-19T21:14:31.780Z,0.40
2022-10-19T21:16:59.499Z,0.35
2022-10-19T21:19:27.989Z,0.50
2022-10-19T21:21:57.755Z,0.50
2022-10-19T21:24:32.365Z,0.55
2022-10-19T21:27:04.872Z,0.60
2022-10-19T21:29:31.639Z,0.55
2022-10-19T21:31:58.237Z,0.40
2022-10-19T21:34:30.422Z,0.50
2022-10-19T21:36:58.108Z,0.95
2022-10-19T21:39:24.878Z,0.57
2022-10-19T21:41:51.598Z,0.60
2022-10-19T21:44:18.999Z,0.50
2022-10-19T21:46:47.915Z,0.40
2022-10-19T21:49:14.980Z,0.60
2022-10-19T21:51:54.403Z,0.40
2022-10-19T21:54:24.990Z,0.40
2022-10-19T21:56:53.400Z,0.40
2022-10-19T21:59:20.166Z,0.90
2022-10-19T22:01:46.859Z,0.40
2022-10-19T22:04:16.923Z,0.75
2022-10-19T22:06:44.712Z,0.60
2022-10-19T22:09:15.939Z,0.55
2022-10-19T22:11:43.091Z,0.60
2022-10-19T22:14:11.621Z,0.70
2022-10-19T22:16:40.400Z,0.70
2022-10-19T22:19:07.108Z,0.90
2022-10-19T22:21:35.195Z,0.60
2022-10-19T22:24:05.430Z,1.00
2022-10-19T22:26:35.635Z,1.02
2022-10-19T22:29:04.072Z,0.70
2022-10-19T22:31:32.363Z,0.60
2022-10-19T22:34:01.128Z,0.73
2022-10-19T22:36:27.823Z,0.70
2022-10-19T22:38:55.216Z,0.70
2022-10-19T22:41:21.849Z,0.88
2022-10-19T22:43:48.564Z,0.90
2022-10-19T22:46:15.100Z,1.25
2022-10-19T22:48:41.691Z,1.10
2022-10-19T22:51:08.251Z,1.00
2022-10-19T22:53:35.615Z,0.70
2022-10-19T22:56:03.189Z,0.55
2022-10-19T22:58:29.921Z,1.00
2022-10-19T23:01:07.249Z,0.90
2022-10-19T23:03:34.402Z,0.85
2022-10-19T23:06:01.645Z,0.63
2022-10-19T23:08:28.346Z,0.60
2022-10-19T23:10:54.968Z,0.90
2022-10-19T23:13:22.229Z,0.43
2022-10-19T23:15:50.568Z,0.90
2022-10-19T23:18:17.559Z,0.70
2022-10-19T23:20:53.124Z,0.55
2022-10-19T23:23:19.732Z,1.02
2022-10-19T23:26:07.304Z,0.70
2022-10-19T23:28:35.795Z,0.45
2022-10-19T23:31:08.331Z,0.50
2022-10-19T23:33:38.015Z,0.70
2022-10-19T23:36:18.671Z,0.50
2022-10-19T23:38:48.800Z,0.82
2022-10-19T23:41:16.736Z,0.50
2022-10-19T23:43:43.612Z,0.60
2022-10-19T23:46:10.599Z,0.40
2022-10-19T23:48:37.668Z,0.57
2022-10-19T23:51:10.135Z,0.45
2022-10-19T23:53:41.675Z,0.60
2022-10-19T23:56:15.719Z,0.60
2022-10-19T23:58:42.966Z,0.63
